createdAt,value
2019-01-18T00:00:39.294Z,67.90
2019-01-18T00:03:07.343Z,69.40
2019-01-18T00:05:35.302Z,68.00
2019-01-18T00:08:03.383Z,68.20
2019-01-18T00:10:31.272Z,68.40
2019-01-18T00:12:59.254Z,69.00
2019-01-18T00:15:27.559Z,67.50
2019-01-18T00:17:55.923Z,69.20
2019-01-18T00:20:24.267Z,69.00
2019-01-18T00:22:52.913Z,69.60
2019-01-18T00:30:17.540Z,69.20
2019-01-18T00:32:45.510Z,69.80
2019-01-18T00:35:13.757Z,70.10
2019-01-18T00:37:41.743Z,70.00
2019-01-18T00:40:10.772Z,68.70
2019-01-18T00:42:38.707Z,69.20
2019-01-18T00:45:09.801Z,68.90
2019-01-18T00:47:37.854Z,68.30
2019-01-18T00:50:08.191Z,68.90
2019-01-18T00:52:36.111Z,69.20
2019-01-18T00:55:04.649Z,68.90
2019-01-18T00:57:32.669Z,68.60
2019-01-18T01:00:00.658Z,68.70
2019-01-18T01:02:28.650Z,68.80
2019-01-18T01:04:58.766Z,68.20
2019-01-18T01:07:27.071Z,68.80
2019-01-18T01:09:55.044Z,69.20
2019-01-18T01:12:23.012Z,67.70
2019-01-18T01:14:51.331Z,68.50
2019-01-18T01:17:19.606Z,68.00
2019-01-18T01:19:48.054Z,68.10
2019-01-18T01:22:17.467Z,68.10
2019-01-18T01:24:46.006Z,67.70
2019-01-18T01:27:14.289Z,67.40
2019-01-18T01:29:43.205Z,67.70
2019-01-18T01:32:11.900Z,68.10
2019-01-18T01:37:08.894Z,68.00
2019-01-18T01:39:36.898Z,68.40
2019-01-18T01:42:05.341Z,67.20
2019-01-18T01:44:35.152Z,67.50
2019-01-18T01:47:03.236Z,68.50
2019-01-18T01:49:31.254Z,67.90
2019-01-18T01:51:59.425Z,67.30
2019-01-18T01:54:27.536Z,67.20
2019-01-18T01:56:55.493Z,67.60
2019-01-18T01:59:23.851Z,67.30
2019-01-18T02:01:51.882Z,68.10
2019-01-18T02:04:20.254Z,67.30
2019-01-18T02:06:48.291Z,67.60
2019-01-18T02:09:16.564Z,67.30
2019-01-18T02:11:44.748Z,67.30
2019-01-18T02:14:13.062Z,67.40
2019-01-18T02:16:41.064Z,66.40
2019-01-18T02:19:10.124Z,66.70
2019-01-18T02:21:39.017Z,67.30
2019-01-18T02:24:06.941Z,66.30
2019-01-18T02:26:36.326Z,67.00
2019-01-18T02:29:05.284Z,66.70
2019-01-18T02:31:33.331Z,66.50
2019-01-18T02:34:01.699Z,66.20
2019-01-18T02:36:29.939Z,67.00
2019-01-18T02:38:57.971Z,66.40
2019-01-18T02:41:26.047Z,66.00
2019-01-18T02:43:54.395Z,65.20
2019-01-18T02:46:22.944Z,65.20
2019-01-18T02:48:50.997Z,65.50
2019-01-18T02:51:19.292Z,63.00
2019-01-18T02:53:47.336Z,63.40
2019-01-18T02:56:15.387Z,63.10
2019-01-18T02:58:43.430Z,63.10
2019-01-18T03:01:12.477Z,62.60
2019-01-18T03:03:40.494Z,62.40
2019-01-18T03:06:12.175Z,62.60
2019-01-18T03:08:40.230Z,62.50
2019-01-18T03:11:08.571Z,63.10
2019-01-18T03:13:36.597Z,63.80
2019-01-18T03:16:04.568Z,64.00
2019-01-18T03:18:32.676Z,65.90
2019-01-18T03:21:00.810Z,66.10
2019-01-18T03:23:28.989Z,66.50
2019-01-18T03:25:57.412Z,66.70
2019-01-18T03:28:25.365Z,68.30
2019-01-18T03:30:53.373Z,67.50
2019-01-18T03:33:21.380Z,67.90
2019-01-18T03:35:49.481Z,68.90
2019-01-18T03:38:17.481Z,69.10
2019-01-18T03:40:45.456Z,68.70
2019-01-18T03:43:13.421Z,69.00
2019-01-18T03:45:41.659Z,69.40
2019-01-18T03:48:09.655Z,70.10
2019-01-18T03:50:37.832Z,69.60
2019-01-18T03:53:05.781Z,70.00
2019-01-18T03:55:33.749Z,69.50
2019-01-18T03:58:01.994Z,69.80
2019-01-18T04:00:30.199Z,69.20
2019-01-18T04:02:58.435Z,69.10
2019-01-18T04:05:26.943Z,67.90
2019-01-18T04:07:55.132Z,68.00
2019-01-18T04:10:24.288Z,68.90
2019-01-18T04:12:52.494Z,68.50
2019-01-18T04:15:21.339Z,67.50
2019-01-18T04:17:49.616Z,66.50
2019-01-18T04:20:17.899Z,67.50
2019-01-18T04:22:45.956Z,67.40
2019-01-18T04:25:18.006Z,66.90
2019-01-18T04:27:46.267Z,67.40
2019-01-18T04:30:16.851Z,67.60
2019-01-18T04:32:45.009Z,67.40
2019-01-18T04:35:13.420Z,67.30
2019-01-18T04:37:41.723Z,66.90
2019-01-18T04:40:14.493Z,67.50
2019-01-18T04:42:42.466Z,67.30
2019-01-18T04:45:10.453Z,66.50
2019-01-18T04:47:38.743Z,66.80
2019-01-18T04:50:11.661Z,65.80
2019-01-18T04:52:39.607Z,66.40
2019-01-18T04:57:36.658Z,65.20
2019-01-18T05:02:35.093Z,64.70
2019-01-18T05:05:03.078Z,65.90
2019-01-18T05:07:31.684Z,65.60
2019-01-18T05:09:59.984Z,65.70
2019-01-18T05:12:27.992Z,65.50
2019-01-18T05:14:55.970Z,65.70
2019-01-18T05:17:24.276Z,66.30
2019-01-18T05:19:52.306Z,65.40
2019-01-18T05:22:20.287Z,65.60
2019-01-18T05:24:49.441Z,65.70
2019-01-18T05:27:17.732Z,65.50
2019-01-18T05:29:45.694Z,66.00
2019-01-18T05:32:13.986Z,66.10
2019-01-18T05:34:41.966Z,66.90
2019-01-18T05:37:09.922Z,65.30
2019-01-18T05:39:37.951Z,66.60
2019-01-18T05:42:05.948Z,67.30
2019-01-18T05:44:33.936Z,67.10
2019-01-18T05:47:02.242Z,67.50
2019-01-18T05:49:30.541Z,67.70
2019-01-18T05:51:58.503Z,68.70
2019-01-18T05:54:26.521Z,67.30
2019-01-18T05:56:55.617Z,67.80
2019-01-18T05:59:23.671Z,67.40
2019-01-18T06:01:51.970Z,67.80
2019-01-18T06:04:19.972Z,67.40
2019-01-18T06:06:47.957Z,68.40
2019-01-18T06:11:44.188Z,67.20
2019-01-18T06:14:12.295Z,67.80
2019-01-18T06:16:40.217Z,67.30
2019-01-18T06:19:08.177Z,68.10
2019-01-18T06:21:36.411Z,67.80
2019-01-18T06:24:04.406Z,67.20
2019-01-18T06:26:32.354Z,67.50
2019-01-18T06:29:00.350Z,68.10
2019-01-18T06:31:28.377Z,68.60
2019-01-18T06:33:56.332Z,68.60
2019-01-18T06:36:24.617Z,69.10
2019-01-18T06:38:52.823Z,72.20
2019-01-18T06:41:49.433Z,74.60
2019-01-18T06:44:17.703Z,77.00
2019-01-18T06:46:45.641Z,78.90
2019-01-18T06:49:15.569Z,80.40
2019-01-18T06:51:43.529Z,80.10
2019-01-18T06:54:12.179Z,79.00
2019-01-18T06:56:40.138Z,79.80
2019-01-18T06:59:08.146Z,79.50
2019-01-18T07:01:36.114Z,78.30
2019-01-18T07:04:04.098Z,78.70
2019-01-18T07:06:32.087Z,76.70
2019-01-18T07:09:01.737Z,77.10
2019-01-18T07:11:31.418Z,76.90
2019-01-18T07:13:59.385Z,76.70
2019-01-18T07:16:27.787Z,77.50
2019-01-18T07:18:55.786Z,76.70
2019-01-18T07:21:24.173Z,77.30
2019-01-18T07:23:52.246Z,76.50
2019-01-18T07:26:20.532Z,79.40
2019-01-18T07:28:48.842Z,75.30
2019-01-18T07:31:16.828Z,75.60
2019-01-18T07:33:45.073Z,76.40
2019-01-18T07:36:13.354Z,74.20
2019-01-18T07:38:41.844Z,75.00
2019-01-18T07:41:10.418Z,73.90
2019-01-18T07:43:38.716Z,72.70
2019-01-18T07:46:06.702Z,74.00
2019-01-18T07:48:34.969Z,75.10
2019-01-18T07:51:03.095Z,74.10
2019-01-18T07:53:31.137Z,73.50
2019-01-18T07:55:59.248Z,72.80
2019-01-18T07:58:27.404Z,75.40
2019-01-18T08:00:57.542Z,73.20
2019-01-18T08:03:25.563Z,72.70
2019-01-18T08:05:53.585Z,73.20
2019-01-18T08:08:21.557Z,73.40
2019-01-18T08:10:49.513Z,74.00
2019-01-18T08:13:17.508Z,73.10
2019-01-18T08:18:14.373Z,73.30
2019-01-18T08:20:42.361Z,73.80
2019-01-18T08:23:10.502Z,73.40
2019-01-18T08:25:38.484Z,74.50
2019-01-18T08:28:07.670Z,73.50
2019-01-18T08:30:35.674Z,73.60
2019-01-18T08:33:04.878Z,73.40
2019-01-18T08:35:32.840Z,74.00
2019-01-18T08:38:00.914Z,74.20
2019-01-18T08:40:32.771Z,73.30
2019-01-18T08:43:00.750Z,73.90
2019-01-18T08:45:36.458Z,72.40
2019-01-18T08:48:05.722Z,73.00
2019-01-18T08:50:33.677Z,73.70
2019-01-18T08:53:01.696Z,72.70
2019-01-18T08:55:31.203Z,72.90
2019-01-18T08:57:59.124Z,72.90
2019-01-18T09:00:28.163Z,69.40
2019-01-18T09:02:56.146Z,70.00
2019-01-18T09:05:24.769Z,68.90
2019-01-18T09:07:53.404Z,68.40
2019-01-18T09:10:22.987Z,68.70
2019-01-18T09:12:50.995Z,68.10
2019-01-18T09:15:18.913Z,68.10
2019-01-18T09:17:46.884Z,67.60
2019-01-18T09:20:21.421Z,68.20
2019-01-18T09:22:49.412Z,68.00
2019-01-18T09:25:17.393Z,68.10
2019-01-18T09:27:45.682Z,68.20
2019-01-18T09:30:19.742Z,69.00
2019-01-18T09:32:48.442Z,66.30
2019-01-18T09:35:17.923Z,67.00
2019-01-18T09:37:46.213Z,67.80
2019-01-18T09:40:21.337Z,67.80
2019-01-18T09:42:49.307Z,67.30
2019-01-18T09:45:17.670Z,67.20
2019-01-18T09:47:46.089Z,67.10
2019-01-18T09:50:17.489Z,68.20
2019-01-18T09:52:45.612Z,67.80
2019-01-18T09:55:13.838Z,67.70
2019-01-18T09:57:42.355Z,68.20
2019-01-18T10:00:21.001Z,65.40
2019-01-18T10:02:49.246Z,65.90
2019-01-18T10:05:17.562Z,66.00
2019-01-18T10:07:45.542Z,67.30
2019-01-18T10:10:16.369Z,67.20
2019-01-18T10:12:45.936Z,67.80
2019-01-18T10:15:18.014Z,68.00
2019-01-18T10:17:45.966Z,67.80
2019-01-18T10:20:15.098Z,66.40
2019-01-18T10:22:45.188Z,66.90
2019-01-18T10:25:14.038Z,66.80
2019-01-18T10:27:42.165Z,67.00
2019-01-18T10:30:16.371Z,66.90
2019-01-18T10:32:46.598Z,66.40
2019-01-18T10:35:15.983Z,66.50
2019-01-18T10:37:45.349Z,67.20
2019-01-18T10:42:41.845Z,66.10
2019-01-18T10:45:11.202Z,67.40
2019-01-18T10:47:39.462Z,66.20
2019-01-18T10:50:14.543Z,65.50
2019-01-18T10:52:42.726Z,64.60
2019-01-18T10:55:10.907Z,66.00
2019-01-18T10:57:38.917Z,61.20
2019-01-18T11:00:14.095Z,61.40
2019-01-18T11:02:42.046Z,62.20
2019-01-18T11:05:10.822Z,62.50
2019-01-18T11:07:39.081Z,63.40
2019-01-18T11:10:09.139Z,63.00
2019-01-18T11:12:37.054Z,63.10
2019-01-18T11:15:08.588Z,63.00
2019-01-18T11:17:36.871Z,63.00
2019-01-18T11:20:10.864Z,62.30
2019-01-18T11:22:39.021Z,61.60
2019-01-18T11:25:07.284Z,61.70
2019-01-18T11:27:35.502Z,61.80
2019-01-18T11:30:07.425Z,60.50
2019-01-18T11:32:35.426Z,61.20
2019-01-18T11:35:04.519Z,60.70
2019-01-18T11:37:32.737Z,60.50
2019-01-18T11:40:01.115Z,60.30
2019-01-18T11:42:29.409Z,57.20
2019-01-18T11:44:57.801Z,57.60
2019-01-18T11:47:25.772Z,57.00
2019-01-18T11:49:54.085Z,56.70
2019-01-18T11:52:22.125Z,55.60
2019-01-18T11:54:50.483Z,56.40
2019-01-18T11:57:18.776Z,55.80
2019-01-18T11:59:49.096Z,55.40
2019-01-18T12:02:22.034Z,56.30
2019-01-18T12:04:46.520Z,55.40
2019-01-18T12:07:14.570Z,54.40
2019-01-18T12:09:43.149Z,54.90
2019-01-18T12:14:39.055Z,54.10
2019-01-18T12:17:07.018Z,54.50
2019-01-18T12:19:34.944Z,54.80
2019-01-18T12:22:03.753Z,55.10
2019-01-18T12:24:31.712Z,55.00
2019-01-18T12:27:00.201Z,55.70
2019-01-18T12:29:28.457Z,55.60
2019-01-18T12:31:56.518Z,55.00
2019-01-18T12:34:24.501Z,55.40
2019-01-18T12:36:58.585Z,55.50
2019-01-18T12:39:22.646Z,56.00
2019-01-18T12:41:50.951Z,56.60
2019-01-18T12:44:18.901Z,57.30
2019-01-18T12:46:46.923Z,57.10
2019-01-18T12:49:14.871Z,56.90
2019-01-18T12:51:42.855Z,57.40
2019-01-18T12:54:11.177Z,57.60
2019-01-18T12:56:39.176Z,57.00
2019-01-18T12:59:07.155Z,57.60
2019-01-18T13:01:36.045Z,58.40
2019-01-18T13:04:08.185Z,59.40
2019-01-18T13:06:34.146Z,59.60
2019-01-18T13:09:02.632Z,59.30
2019-01-18T13:11:31.671Z,60.00
2019-01-18T13:13:59.775Z,59.00
2019-01-18T13:16:41.725Z,59.50
2019-01-18T13:19:20.066Z,58.70
2019-01-18T13:21:49.268Z,59.30
2019-01-18T13:24:17.710Z,59.60
2019-01-18T13:26:45.832Z,59.00
2019-01-18T13:29:14.332Z,59.20
2019-01-18T13:31:42.503Z,59.60
2019-01-18T13:34:10.642Z,59.90
2019-01-18T13:36:39.243Z,59.20
2019-01-18T13:39:09.281Z,58.60
2019-01-18T13:41:37.498Z,58.30
2019-01-18T13:44:05.925Z,58.90
2019-01-18T13:46:35.358Z,58.30
2019-01-18T13:49:03.359Z,59.20
2019-01-18T13:51:31.858Z,59.20
2019-01-18T13:56:29.182Z,58.50
2019-01-18T13:58:57.637Z,59.20
2019-01-18T14:01:25.644Z,59.80
2019-01-18T14:03:53.857Z,60.00
2019-01-18T14:06:22.127Z,59.70
2019-01-18T14:08:50.159Z,61.00
2019-01-18T14:11:18.520Z,60.50
2019-01-18T14:13:47.090Z,62.00
2019-01-18T14:16:15.074Z,61.40
2019-01-18T14:18:43.410Z,60.80
2019-01-18T14:21:12.995Z,60.50
2019-01-18T14:23:41.102Z,61.10
2019-01-18T14:26:09.059Z,60.50
2019-01-18T14:28:37.222Z,60.40
2019-01-18T14:31:06.033Z,59.50
2019-01-18T14:33:35.064Z,59.50
2019-01-18T14:36:03.403Z,60.20
2019-01-18T14:38:31.409Z,60.30
2019-01-18T14:40:59.369Z,60.80
2019-01-18T14:43:27.657Z,60.30
2019-01-18T14:45:55.720Z,59.80
2019-01-18T14:48:24.173Z,60.40
2019-01-18T14:50:52.159Z,61.60
2019-01-18T14:53:20.148Z,61.70
2019-01-18T14:55:48.131Z,61.60
2019-01-18T14:58:16.100Z,62.30
2019-01-18T15:00:44.181Z,62.20
2019-01-18T15:03:14.182Z,62.70
2019-01-18T15:05:42.478Z,61.20
2019-01-18T15:08:10.441Z,61.80
2019-01-18T15:10:38.409Z,62.50
2019-01-18T15:13:16.394Z,64.40
2019-01-18T15:15:44.794Z,65.00
2019-01-18T15:18:13.484Z,64.20
2019-01-18T15:20:41.568Z,64.30
2019-01-18T15:23:10.592Z,65.60
2019-01-18T15:25:38.738Z,64.80
2019-01-18T15:28:06.788Z,65.30
2019-01-18T15:30:34.982Z,65.60
2019-01-18T15:33:09.044Z,62.30
2019-01-18T15:35:36.736Z,65.20
2019-01-18T15:38:07.534Z,63.60
2019-01-18T15:43:05.789Z,64.50
2019-01-18T15:53:00.637Z,64.50
2019-01-18T15:55:28.956Z,65.30
2019-01-18T15:57:57.394Z,63.90
2019-01-18T16:00:28.946Z,64.50
2019-01-18T16:02:56.884Z,64.90
2019-01-18T16:05:26.664Z,63.90
2019-01-18T16:07:54.688Z,64.40
2019-01-18T16:10:25.262Z,64.70
2019-01-18T16:12:54.187Z,64.90
2019-01-18T16:15:26.654Z,65.30
2019-01-18T16:17:54.776Z,65.50
2019-01-18T16:20:23.587Z,65.10
2019-01-18T16:22:51.928Z,65.50
2019-01-18T16:25:26.809Z,65.60
2019-01-18T16:27:55.446Z,65.30
2019-01-18T16:30:23.894Z,66.20
2019-01-18T16:32:52.635Z,67.70
2019-01-18T16:35:20.742Z,69.20
2019-01-18T16:37:49.279Z,68.60
2019-01-18T16:40:28.129Z,68.90
2019-01-18T16:43:03.048Z,70.80
2019-01-18T16:45:31.803Z,71.10
2019-01-18T16:48:00.079Z,72.60
2019-01-18T16:50:28.257Z,70.30
2019-01-18T16:52:56.383Z,70.20
2019-01-18T16:55:26.300Z,70.80
2019-01-18T16:57:55.744Z,71.00
2019-01-18T17:00:36.954Z,71.40
2019-01-18T17:03:06.632Z,72.10
2019-01-18T17:05:35.054Z,72.40
2019-01-18T17:08:03.118Z,72.30
2019-01-18T17:10:31.314Z,72.40
2019-01-18T17:12:59.702Z,72.30
2019-01-18T17:15:27.877Z,72.70
2019-01-18T17:17:55.963Z,72.20
2019-01-18T17:20:27.290Z,72.10
2019-01-18T17:22:55.477Z,71.30
2019-01-18T17:25:23.574Z,71.40
2019-01-18T17:27:51.828Z,70.70
2019-01-18T17:30:19.919Z,71.10
2019-01-18T17:32:48.916Z,70.00
2019-01-18T17:35:34.593Z,69.60
2019-01-18T17:38:23.184Z,70.20
2019-01-18T17:41:21.725Z,70.40
2019-01-18T17:44:42.759Z,69.90
2019-01-18T17:48:00.289Z,70.60
2019-01-18T17:51:13.314Z,70.30
2019-01-18T17:54:37.798Z,70.90
2019-01-18T17:57:45.733Z,71.10
2019-01-18T18:01:45.387Z,71.60
2019-01-18T18:05:06.237Z,70.00
2019-01-18T18:08:31.520Z,70.70
2019-01-18T18:12:07.251Z,71.70
2019-01-18T18:15:17.731Z,71.00
2019-01-18T18:18:43.628Z,72.10
2019-01-18T18:21:49.930Z,72.60
2019-01-18T18:24:52.705Z,74.00
2019-01-18T18:28:20.550Z,76.40
2019-01-18T18:31:25.896Z,74.30
2019-01-18T18:34:55.914Z,72.90
2019-01-18T18:38:28.656Z,71.80
2019-01-18T18:42:19.069Z,71.80
2019-01-18T18:46:21.700Z,71.90
2019-01-18T18:49:32.307Z,72.30
2019-01-18T18:53:02.132Z,73.40
2019-01-18T18:56:27.937Z,73.70
2019-01-18T18:59:34.199Z,74.40
2019-01-18T19:03:00.647Z,73.30
2019-01-18T19:06:24.711Z,73.40
2019-01-18T19:12:12.585Z,73.30
2019-01-18T19:15:18.605Z,73.20
2019-01-18T19:18:10.639Z,73.10
2019-01-18T19:21:37.868Z,73.10
2019-01-18T19:25:19.781Z,73.60
2019-01-18T19:28:36.471Z,73.70
2019-01-18T19:32:05.011Z,74.10
2019-01-18T19:34:58.290Z,73.60
2019-01-18T19:38:16.602Z,71.20
2019-01-18T19:41:42.765Z,71.70
2019-01-18T19:45:17.163Z,72.00
2019-01-18T19:48:42.038Z,72.40
2019-01-18T19:52:12.715Z,72.20
2019-01-18T19:55:06.450Z,72.50
2019-01-18T19:58:29.792Z,75.20
2019-01-18T20:02:06.939Z,72.10
2019-01-18T20:05:54.442Z,72.50
2019-01-18T20:15:28.867Z,70.90
2019-01-18T20:19:00.796Z,71.40
2019-01-18T20:22:08.094Z,70.60
2019-01-18T20:25:20.091Z,70.40
2019-01-18T20:28:39.099Z,71.60
2019-01-18T20:31:59.307Z,72.60
2019-01-18T20:35:33.017Z,72.10
2019-01-18T20:38:41.243Z,72.50
2019-01-18T20:45:02.667Z,74.80
2019-01-18T20:48:15.614Z,78.60
2019-01-18T20:51:42.349Z,79.10
2019-01-18T20:55:19.476Z,75.50
2019-01-18T20:58:31.027Z,72.80
2019-01-18T21:01:54.798Z,73.00
2019-01-18T21:05:20.036Z,72.50
2019-01-18T21:08:28.443Z,72.80
2019-01-18T21:11:53.857Z,73.40
2019-01-18T21:15:10.212Z,73.70
2019-01-18T21:18:22.581Z,75.40
2019-01-18T21:21:23.928Z,73.60
2019-01-18T21:25:05.795Z,75.40
2019-01-18T21:28:46.102Z,75.80
2019-01-18T21:31:45.321Z,70.90
2019-01-18T21:34:47.051Z,71.40
2019-01-18T21:38:19.019Z,74.70
2019-01-18T21:44:42.548Z,76.10
2019-01-18T21:48:19.799Z,73.20
2019-01-18T21:51:32.947Z,74.50
2019-01-18T21:54:56.584Z,75.20
2019-01-18T21:58:53.279Z,74.50
2019-01-18T22:02:16.993Z,71.70
2019-01-18T22:05:55.291Z,73.10
2019-01-18T22:09:04.389Z,73.70
2019-01-18T22:12:39.547Z,75.00
2019-01-18T22:16:05.226Z,73.20
2019-01-18T22:19:32.419Z,75.80
2019-01-18T22:23:08.138Z,74.90
2019-01-18T22:26:28.559Z,74.00
2019-01-18T22:29:55.217Z,73.50
2019-01-18T22:33:03.109Z,73.80
2019-01-18T22:36:42.332Z,73.20
2019-01-18T22:40:01.344Z,72.90
2019-01-18T22:43:16.540Z,74.70
2019-01-18T22:46:34.713Z,75.10
2019-01-18T22:49:35.595Z,74.00
2019-01-18T22:52:44.041Z,74.50
2019-01-18T22:56:15.613Z,73.20
2019-01-18T22:59:51.227Z,74.30
2019-01-18T23:02:54.119Z,75.60
2019-01-18T23:06:19.667Z,75.60
2019-01-18T23:09:53.192Z,74.70
2019-01-18T23:12:57.170Z,72.80
2019-01-18T23:16:09.074Z,72.90
2019-01-18T23:19:14.652Z,72.90
2019-01-18T23:23:02.740Z,72.20
2019-01-18T23:26:16.452Z,72.70
2019-01-18T23:29:33.570Z,72.10
2019-01-18T23:32:58.168Z,71.80
2019-01-18T23:36:14.234Z,71.80
2019-01-18T23:39:40.957Z,71.60
2019-01-18T23:42:44.247Z,74.00
2019-01-18T23:46:15.565Z,72.60
2019-01-18T23:49:16.835Z,75.00
2019-01-18T23:52:57.321Z,73.80
2019-01-18T23:56:16.491Z,73.20
